Time;durP1;ratioP1;P1;durP2;ratioP2;P2;SDS_P1;SDS_P2;PMS_P1;PMS_P2;Temp;Humidity;BMP_temperature;BMP_pressure;BME280_temperature;BME280_humidity;BME280_pressure;Samples;Min_cycle;Max_cycle;Signal;HPM_P1;HPM_P2
2021/01/26 00:01:19;;;;;;;27.77;12.37;;;;;;;-0.30;75.08;97047.09;1780723;80;21317;-74
2021/01/26 00:03:45;;;;;;;23.45;12.45;;;;;;;-0.29;74.76;97050.05;1780654;79;21067;-74
2021/01/26 00:06:11;;;;;;;24.27;11.95;;;;;;;-0.26;75.18;97057.27;1780718;80;21102;-74
2021/01/26 00:08:37;;;;;;;30.05;14.05;;;;;;;-0.29;75.10;97058.55;1780711;79;21154;-74
2021/01/26 00:11:04;;;;;;;23.95;11.80;;;;;;;-0.26;75.34;97055.94;1780780;80;21039;-74
2021/01/26 00:13:31;;;;;;;30.17;12.73;;;;;;;-0.27;74.91;97065.78;1780726;79;21284;-74
2021/01/26 00:15:58;;;;;;;33.38;14.50;;;;;;;-0.25;75.38;97054.39;1780622;80;21559;-74
2021/01/26 00:18:25;;;;;;;32.13;13.58;;;;;;;-0.18;75.34;97060.91;1780712;79;21079;-74
2021/01/26 00:20:51;;;;;;;28.15;12.82;;;;;;;-0.18;75.38;97062.23;1780686;80;21122;-74
2021/01/26 00:23:17;;;;;;;25.15;12.75;;;;;;;-0.16;75.50;97060.17;1780723;79;21110;-74
2021/01/26 00:25:43;;;;;;;34.10;13.58;;;;;;;-0.15;75.44;97063.92;1780790;80;22122;-74
2021/01/26 00:28:12;;;;;;;27.55;12.00;;;;;;;-0.16;75.47;97064.97;1762081;81;21052;-74
2021/01/26 00:30:40;;;;;;;28.90;13.58;;;;;;;-0.17;75.55;97071.34;1780814;80;26583;-74
2021/01/26 00:33:11;;;;;;;26.48;12.47;;;;;;;-0.14;75.57;97076.72;1762131;81;21040;-74
2021/01/26 00:35:37;;;;;;;32.60;14.47;;;;;;;-0.20;75.91;97075.79;1780328;80;21122;-74
2021/01/26 00:38:03;;;;;;;26.37;13.53;;;;;;;-0.25;76.12;97084.20;1762131;81;21258;-74
2021/01/26 00:40:30;;;;;;;29.15;13.25;;;;;;;-0.25;76.09;97086.34;1780610;80;21103;-74
2021/01/26 00:42:57;;;;;;;22.73;11.83;;;;;;;-0.22;76.18;97082.40;1762113;81;21521;-74
2021/01/26 00:45:24;;;;;;;28.07;13.68;;;;;;;-0.29;76.06;97085.17;1749768;81;21022;-74
2021/01/26 00:47:50;;;;;;;27.02;11.00;;;;;;;-0.27;76.08;97088.41;1749809;82;21086;-74
2021/01/26 00:50:17;;;;;;;25.37;11.18;;;;;;;-0.29;76.16;97092.64;1749732;82;21194;-74
2021/01/26 00:52:43;;;;;;;22.85;11.88;;;;;;;-0.26;76.38;97099.34;1749765;82;21485;-74
2021/01/26 00:55:10;;;;;;;22.40;11.33;;;;;;;-0.31;76.40;97095.26;1749755;82;21135;-74
2021/01/26 00:57:38;;;;;;;29.37;12.85;;;;;;;-0.31;76.27;97097.92;1780697;80;21129;-74
2021/01/26 01:00:08;;;;;;;17.13;9.40;;;;;;;-0.34;76.22;97097.06;1780982;79;21381;-74
2021/01/26 01:02:34;;;;;;;24.30;10.08;;;;;;;-0.32;76.19;97103.77;1780947;80;21202;-74
2021/01/26 01:05:00;;;;;;;26.37;11.70;;;;;;;-0.38;76.28;97098.03;1780734;79;21118;-74
2021/01/26 01:07:26;;;;;;;20.32;10.48;;;;;;;-0.34;76.20;97099.73;1780944;80;21142;-74
2021/01/26 01:09:53;;;;;;;24.27;10.40;;;;;;;-0.36;76.30;97099.13;1762190;81;21319;-73
2021/01/26 01:12:19;;;;;;;26.42;12.43;;;;;;;-0.33;76.31;97104.00;1780883;80;21134;-74
2021/01/26 01:14:45;;;;;;;29.85;11.25;;;;;;;-0.36;76.39;97107.92;1761472;81;21973;-74
2021/01/26 01:17:11;;;;;;;22.42;9.05;;;;;;;-0.32;76.40;97109.61;1732482;82;21098;-74
2021/01/26 01:19:37;;;;;;;28.32;13.10;;;;;;;-0.32;76.69;97111.75;1732429;81;21148;-74
2021/01/26 01:22:03;;;;;;;31.68;13.53;;;;;;;-0.38;76.63;97109.20;1732545;82;21561;-74
2021/01/26 01:24:30;;;;;;;27.82;12.60;;;;;;;-0.39;76.73;97104.92;1732585;81;21113;-74
2021/01/26 01:26:56;;;;;;;29.85;13.40;;;;;;;-0.36;76.57;97110.58;1732582;82;21270;-74
2021/01/26 01:29:22;;;;;;;20.12;11.70;;;;;;;-0.49;76.66;97111.35;1732388;81;21089;-74
2021/01/26 01:31:48;;;;;;;27.90;12.10;;;;;;;-0.38;76.55;97113.19;1732535;82;21109;-73
2021/01/26 01:34:15;;;;;;;30.25;13.28;;;;;;;-0.42;77.04;97116.05;1732432;81;21455;-74
2021/01/26 01:36:41;;;;;;;27.32;12.05;;;;;;;-0.35;76.72;97112.20;1732598;82;21573;-74
2021/01/26 01:39:08;;;;;;;24.05;11.88;;;;;;;-0.32;76.66;97117.08;1732558;81;21323;-74
2021/01/26 01:41:35;;;;;;;21.55;10.15;;;;;;;-0.31;76.78;97112.56;1732407;82;21049;-74
2021/01/26 01:44:02;;;;;;;24.85;12.23;;;;;;;-0.31;76.77;97113.89;1732423;81;21506;-74
2021/01/26 01:46:30;;;;;;;30.88;12.47;;;;;;;-0.29;76.74;97109.14;1732509;82;21108;-74
2021/01/26 01:48:59;;;;;;;25.50;12.05;;;;;;;-0.25;76.69;97114.30;1732491;81;21021;-74
2021/01/26 01:51:25;;;;;;;31.15;15.35;;;;;;;-0.24;76.61;97109.78;1732526;82;22152;-74
2021/01/26 01:54:08;;;;;;;26.60;12.98;;;;;;;-0.23;76.65;97110.07;1732485;81;21422;-74
2021/01/26 01:57:02;;;;;;;27.22;12.60;;;;;;;-0.22;76.82;97113.02;1783916;80;21047;-74
2021/01/26 01:59:34;;;;;;;21.00;10.05;;;;;;;-0.32;77.48;97119.73;1785235;79;21498;-75
2021/01/26 02:02:02;;;;;;;24.40;9.73;;;;;;;-0.34;76.74;97118.36;1782096;80;21523;-74
2021/01/26 02:04:29;;;;;;;25.08;10.20;;;;;;;-0.34;76.87;97113.03;1785468;79;21190;-74
2021/01/26 02:06:56;;;;;;;23.22;9.30;;;;;;;-0.31;76.88;97122.69;1756732;80;21047;-74
2021/01/26 02:09:31;;;;;;;27.32;11.22;;;;;;;-0.30;76.78;97118.98;1785196;79;21114;-74
2021/01/26 02:11:57;;;;;;;23.73;11.10;;;;;;;-0.34;76.72;97117.84;1785170;80;21170;-73
2021/01/26 02:14:25;;;;;;;18.02;9.08;;;;;;;-0.34;76.75;97121.02;1785192;79;21169;-73
2021/01/26 02:17:03;;;;;;;22.95;11.20;;;;;;;-0.37;76.86;97119.61;1785106;80;21159;-73
2021/01/26 02:19:55;;;;;;;24.52;10.13;;;;;;;-0.35;76.90;97127.36;1785029;79;21118;-74
2021/01/26 02:23:00;;;;;;;19.40;9.85;;;;;;;-0.32;76.83;97126.92;1735023;80;21483;-74
2021/01/26 02:25:43;;;;;;;20.57;10.25;;;;;;;-0.29;76.70;97122.45;1750070;82;21458;-74
2021/01/26 02:28:52;;;;;;;25.82;10.88;;;;;;;-0.33;76.67;97126.11;1750291;82;21053;-74
2021/01/26 02:31:53;;;;;;;21.50;9.40;;;;;;;-0.36;76.49;97135.06;1778328;80;21194;-74
2021/01/26 02:35:16;;;;;;;23.00;9.25;;;;;;;-0.39;76.50;97129.69;1759464;79;21078;-74
2021/01/26 02:38:38;;;;;;;26.23;10.28;;;;;;;-0.43;76.55;97139.69;1785260;79;21106;-75
2021/01/26 02:41:16;;;;;;;17.77;9.25;;;;;;;-0.40;76.75;97149.37;1785158;80;21066;-75
2021/01/26 02:44:18;;;;;;;22.55;9.85;;;;;;;-0.45;78.08;97154.56;1785227;79;21055;-74
2021/01/26 02:46:50;;;;;;;20.95;8.65;;;;;;;-0.52;78.25;97148.53;1785237;80;21229;-74
2021/01/26 02:49:39;;;;;;;20.05;9.88;;;;;;;-0.52;77.43;97145.88;1755959;80;21428;-74
2021/01/26 02:52:31;;;;;;;20.77;8.85;;;;;;;-0.54;77.51;97148.48;1785201;80;21173;-74
2021/01/26 02:55:33;;;;;;;19.98;8.08;;;;;;;-0.55;77.40;97147.67;1785145;79;21162;-74
2021/01/26 02:58:20;;;;;;;14.15;7.97;;;;;;;-0.57;77.46;97151.09;1785194;79;21102;-74
2021/01/26 03:00:47;;;;;;;21.05;7.28;;;;;;;-0.61;77.47;97146.73;1785084;80;21201;-74
2021/01/26 03:03:20;;;;;;;27.02;13.45;;;;;;;-0.62;77.23;97146.44;1785101;79;21409;-74
2021/01/26 03:05:53;;;;;;;22.25;11.28;;;;;;;-0.64;77.10;97144.53;1785172;80;21039;-74
2021/01/26 03:08:26;;;;;;;34.30;16.50;;;;;;;-0.64;77.33;97148.53;1756670;80;21114;-74
2021/01/26 03:11:00;;;;;;;49.23;18.52;;;;;;;-0.63;77.29;97147.48;1785275;80;21401;-73
2021/01/26 03:13:26;;;;;;;37.08;16.12;;;;;;;-0.63;77.25;97152.00;1785198;79;21182;-74
2021/01/26 03:16:00;;;;;;;21.93;8.88;;;;;;;-0.59;77.35;97154.50;1785051;80;21051;-74
2021/01/26 03:18:34;;;;;;;20.30;8.25;;;;;;;-0.55;77.44;97154.33;1785189;79;21056;-74
2021/01/26 03:21:02;;;;;;;17.15;8.75;;;;;;;-0.50;77.28;97154.98;1765200;80;21842;-73
2021/01/26 03:23:45;;;;;;;29.07;10.05;;;;;;;-0.47;76.99;97157.98;1785160;79;21091;-73
2021/01/26 03:26:16;;;;;;;19.42;8.88;;;;;;;-0.51;76.71;97152.00;1785256;80;21255;-75
2021/01/26 03:28:43;;;;;;;13.18;6.85;;;;;;;-0.52;76.63;97151.72;1785098;79;21491;-74
2021/01/26 03:31:11;;;;;;;17.42;7.03;;;;;;;-0.48;76.78;97160.36;1785142;80;21098;-74
2021/01/26 03:33:43;;;;;;;47.73;15.30;;;;;;;-0.46;76.82;97158.78;1785140;79;21586;-74
2021/01/26 03:36:09;;;;;;;47.35;20.15;;;;;;;-0.43;76.62;97161.78;1785136;80;21491;-74
2021/01/26 03:38:35;;;;;;;29.75;15.78;;;;;;;-0.41;76.59;97162.39;1785130;79;21196;-74
2021/01/26 03:41:04;;;;;;;32.00;15.63;;;;;;;-0.38;76.22;97163.25;1785043;80;21047;-74
2021/01/26 03:43:30;;;;;;;52.23;27.98;;;;;;;-0.37;76.30;97163.53;1757092;80;21114;-74
2021/01/26 03:46:12;;;;;;;31.95;22.65;;;;;;;-0.35;76.22;97164.11;1785204;80;21146;-74
2021/01/26 03:48:52;;;;;;;19.32;11.95;;;;;;;-0.34;76.04;97167.09;1785166;79;21047;-74
2021/01/26 03:51:44;;;;;;;14.73;8.63;;;;;;;-0.32;76.00;97172.17;1784830;80;21201;-74
2021/01/26 03:54:40;;;;;;;16.75;9.15;;;;;;;-0.22;76.20;97171.59;1824919;76;22625;-73
2021/01/26 03:57:28;;;;;;;18.42;10.85;;;;;;;-0.24;76.01;97176.35;1771286;80;21055;-74
2021/01/26 04:00:23;;;;;;;19.98;14.85;;;;;;;-0.26;75.85;97177.89;1785125;79;22088;-74
2021/01/26 04:03:16;;;;;;;20.23;13.88;;;;;;;-0.27;75.75;97174.94;1785695;79;21040;-74
2021/01/26 04:06:10;;;;;;;15.90;10.08;;;;;;;-0.31;75.73;97177.79;1786000;80;20936;-75
2021/01/26 04:08:51;;;;;;;15.28;8.65;;;;;;;-0.40;75.81;97183.16;1785659;79;21118;-74
2021/01/26 04:11:27;;;;;;;21.77;11.70;;;;;;;-0.40;76.02;97179.17;1785940;80;21077;-73
2021/01/26 04:14:01;;;;;;;21.25;11.97;;;;;;;-0.44;76.12;97179.33;1785901;79;21108;-74
2021/01/26 04:16:32;;;;;;;16.67;8.55;;;;;;;-0.45;76.30;97185.70;1785385;80;20984;-74
2021/01/26 04:19:00;;;;;;;18.25;9.08;;;;;;;-0.44;76.39;97182.80;1785854;79;20909;-74
2021/01/26 04:21:26;;;;;;;16.12;8.80;;;;;;;-0.41;76.30;97192.20;1785842;80;21091;-74
2021/01/26 04:23:54;;;;;;;26.80;12.70;;;;;;;-0.45;76.48;97203.80;1785854;79;21055;-74
2021/01/26 04:26:20;;;;;;;33.35;15.58;;;;;;;-0.43;76.65;97207.56;1785954;80;21186;-74
2021/01/26 04:28:51;;;;;;;16.75;7.55;;;;;;;-0.42;76.65;97199.38;1785782;79;21385;-74
2021/01/26 04:31:15;;;;;;;17.45;7.65;;;;;;;-0.44;76.67;97196.63;1785068;79;21110;-74
2021/01/26 04:33:42;;;;;;;16.45;8.15;;;;;;;-0.57;76.85;97194.48;1785781;79;21169;-73
2021/01/26 04:36:09;;;;;;;18.05;7.65;;;;;;;-0.60;77.00;97197.61;1785875;79;21066;-74
2021/01/26 04:38:35;;;;;;;17.25;9.35;;;;;;;-0.56;77.01;97193.95;1785820;79;22111;-74
2021/01/26 04:41:11;;;;;;;16.93;8.55;;;;;;;-0.58;76.99;97200.03;1785922;80;21035;-74
2021/01/26 04:44:04;;;;;;;14.75;9.08;;;;;;;-0.62;77.28;97201.52;1765755;79;21412;-74
2021/01/26 04:46:34;;;;;;;17.70;8.63;;;;;;;-0.60;77.20;97203.42;1741181;80;21061;-74
2021/01/26 04:49:17;;;;;;;20.57;8.53;;;;;;;-0.65;76.93;97204.12;1785867;79;21431;-74
2021/01/26 04:52:41;;;;;;;8.28;4.10;;;;;;;-0.60;76.94;97206.08;1757996;80;21299;-75
2021/01/26 04:55:28;;;;;;;11.93;5.90;;;;;;;-0.58;76.71;97208.83;1785835;79;21090;-75
2021/01/26 04:58:30;;;;;;;16.17;10.50;;;;;;;-0.57;76.57;97203.80;1785918;79;21483;-75
2021/01/26 05:01:27;;;;;;;18.57;9.28;;;;;;;-0.63;76.74;97215.34;1784900;80;21030;-74
2021/01/26 05:04:10;;;;;;;31.62;18.07;;;;;;;-0.62;76.78;97220.14;1785211;79;21075;-73
2021/01/26 05:06:57;;;;;;;52.23;30.55;;;;;;;-0.60;76.68;97220.72;1785325;80;21475;-74
2021/01/26 05:09:43;;;;;;;56.48;27.58;;;;;;;-0.54;76.34;97212.35;1863797;76;22530;-73
2021/01/26 05:12:11;;;;;;;37.15;18.30;;;;;;;-0.64;76.38;97224.37;1827029;78;20967;-74
2021/01/26 05:14:41;;;;;;;16.40;8.40;;;;;;;-0.67;76.17;97225.35;1796132;78;21184;-74
2021/01/26 05:17:29;;;;;;;36.50;13.65;;;;;;;-0.69;76.06;97226.89;1790832;80;21507;-74
2021/01/26 05:20:03;;;;;;;28.90;15.20;;;;;;;-0.73;75.39;97225.73;1791025;78;26484;-74
2021/01/26 05:22:54;;;;;;;25.23;11.48;;;;;;;-0.73;75.97;97228.39;1790963;80;21096;-74
2021/01/26 05:25:22;;;;;;;24.60;14.70;;;;;;;-0.72;76.10;97230.01;1790912;80;20949;-74
2021/01/26 05:27:49;;;;;;;21.30;12.75;;;;;;;-0.73;75.93;97235.56;1790864;80;22123;-73
2021/01/26 05:30:29;;;;;;;17.23;9.48;;;;;;;-0.69;75.90;97232.73;1790853;80;20973;-73
2021/01/26 05:32:57;;;;;;;24.45;10.38;;;;;;;-0.67;75.69;97242.13;1790802;80;21492;-74
2021/01/26 05:35:23;;;;;;;19.77;9.80;;;;;;;-0.66;75.76;97241.61;1790852;80;21087;-74
2021/01/26 05:37:52;;;;;;;18.15;9.25;;;;;;;-0.65;75.76;97250.69;1790789;80;21030;-74
2021/01/26 05:40:28;;;;;;;13.80;7.72;;;;;;;-0.62;75.76;97244.90;1790964;80;21132;-74
2021/01/26 05:43:01;;;;;;;13.88;7.45;;;;;;;-0.62;74.97;97252.08;1790842;80;21519;-73
2021/01/26 05:45:31;;;;;;;26.60;10.25;;;;;;;-0.60;75.48;97253.98;1790903;80;21094;-74
2021/01/26 05:48:16;;;;;;;19.90;10.32;;;;;;;-0.66;75.12;97246.92;1790840;80;21004;-74
2021/01/26 05:50:44;;;;;;;20.25;10.50;;;;;;;-0.61;75.26;97254.50;1790964;80;21067;-74
2021/01/26 05:53:26;;;;;;;18.50;11.40;;;;;;;-0.59;75.37;97250.31;1790796;80;21100;-73
2021/01/26 05:56:08;;;;;;;19.75;10.45;;;;;;;-0.57;75.35;97253.55;1790607;79;21107;-74
2021/01/26 05:58:28;;;;;;;16.27;9.70;;;;;;;-0.59;74.76;97253.78;1788075;80;21072;-74
2021/01/26 06:00:57;;;;;;;17.10;9.03;;;;;;;-0.59;74.93;97252.97;1790914;80;21523;-73
2021/01/26 06:03:23;;;;;;;23.20;14.70;;;;;;;-0.55;75.18;97254.12;1790710;78;21094;-74
2021/01/26 06:06:13;;;;;;;30.25;15.83;;;;;;;-0.53;75.16;97261.88;1790827;80;21531;-74
2021/01/26 06:08:53;;;;;;;31.52;16.93;;;;;;;-0.50;75.19;97267.58;1772007;79;21029;-74
2021/01/26 06:11:24;;;;;;;29.52;14.10;;;;;;;-0.50;75.22;97270.23;1744135;82;21077;-74
2021/01/26 06:13:50;;;;;;;36.75;18.57;;;;;;;-0.47;75.21;97279.61;1744140;81;20942;-73
2021/01/26 06:16:23;;;;;;;25.85;15.63;;;;;;;-0.51;75.34;97274.43;1744187;82;21175;-73
2021/01/26 06:18:58;;;;;;;39.75;24.32;;;;;;;-0.53;75.75;97288.49;1716613;82;21204;-74
2021/01/26 06:21:25;;;;;;;28.38;18.37;;;;;;;-0.57;75.78;97290.28;1743499;82;21156;-74
2021/01/26 06:23:51;;;;;;;62.10;36.60;;;;;;;-0.60;75.99;97288.09;1743476;81;21050;-73
2021/01/26 06:26:17;;;;;;;40.50;23.40;;;;;;;-0.59;76.01;97293.70;1743549;82;21151;-73
2021/01/26 06:29:12;;;;;;;37.42;26.57;;;;;;;-0.58;76.12;97289.19;1743469;81;21320;-73
2021/01/26 06:32:16;;;;;;;43.17;19.87;;;;;;;-0.55;76.25;97295.90;1743325;82;21142;-74
2021/01/26 06:34:59;;;;;;;22.65;10.80;;;;;;;-0.55;76.58;97292.72;1743281;81;21140;-73
2021/01/26 06:37:36;;;;;;;15.83;9.18;;;;;;;-0.53;76.51;97293.81;1743034;82;21116;-74
2021/01/26 06:40:28;;;;;;;15.88;10.25;;;;;;;-0.54;76.83;97303.66;1743589;81;21153;-74
2021/01/26 06:43:17;;;;;;;18.55;11.10;;;;;;;-0.61;78.37;97310.39;1743477;81;21219;-74
2021/01/26 06:45:49;;;;;;;27.35;21.25;;;;;;;-0.65;77.96;97311.08;1743362;82;21252;-74
2021/01/26 06:48:55;;;;;;;21.75;11.85;;;;;;;-0.71;78.23;97308.79;1743077;81;21160;-73
2021/01/26 06:51:29;;;;;;;111.85;35.85;;;;;;;-0.62;77.71;97306.62;1709732;82;21148;-74
2021/01/26 06:54:52;;;;;;;91.42;32.45;;;;;;;-0.71;77.69;97315.96;1742351;81;21128;-74
2021/01/26 06:57:55;;;;;;;66.47;22.87;;;;;;;-0.70;77.72;97317.06;1743469;81;21136;-74
2021/01/26 07:00:56;;;;;;;36.83;17.55;;;;;;;-0.69;77.67;97312.55;1743212;82;21521;-74
2021/01/26 07:04:17;;;;;;;60.38;25.45;;;;;;;-0.64;77.89;97310.04;1743405;81;21105;-74
2021/01/26 07:07:14;;;;;;;38.73;22.70;;;;;;;-0.60;77.72;97314.70;1743130;82;21105;-75
2021/01/26 07:10:04;;;;;;;21.65;11.48;;;;;;;-0.57;77.42;97318.75;1745903;81;21040;-74
2021/01/26 07:12:51;;;;;;;25.10;11.83;;;;;;;-0.58;76.80;97321.93;1771247;81;21093;-74
2021/01/26 07:15:50;;;;;;;34.00;14.13;;;;;;;-0.56;76.80;97323.03;1770394;81;22096;-73
2021/01/26 07:18:33;;;;;;;18.95;10.35;;;;;;;-0.51;76.69;97325.00;1770810;79;21433;-74
2021/01/26 07:21:55;;;;;;;37.45;20.08;;;;;;;-0.44;76.72;97332.38;1741241;81;21020;-74
2021/01/26 07:24:30;;;;;;;44.45;22.40;;;;;;;-0.36;76.40;97337.39;1771154;79;21004;-74
2021/01/26 07:27:37;;;;;;;28.25;16.85;;;;;;;-0.22;76.44;97335.36;1847706;76;22577;-73
2021/01/26 07:30:22;;;;;;;38.17;16.57;;;;;;;-0.23;76.17;97341.73;1786594;79;21395;-74
2021/01/26 07:33:06;;;;;;;31.82;13.60;;;;;;;-0.19;75.68;97336.23;1786020;79;22042;-74
2021/01/26 07:36:00;;;;;;;24.40;11.68;;;;;;;-0.23;75.90;97344.39;1785804;80;21032;-74
2021/01/26 07:38:53;;;;;;;19.98;10.63;;;;;;;-0.20;75.93;97342.59;1785920;79;20889;-75
2021/01/26 07:41:30;;;;;;;56.42;22.17;;;;;;;-0.15;75.78;97342.22;1745867;80;21087;-74
2021/01/26 07:44:20;;;;;;;21.55;10.75;;;;;;;-0.07;75.67;97345.89;1785909;79;21385;-74
2021/01/26 07:46:57;;;;;;;16.35;7.47;;;;;;;-0.08;75.79;97358.11;1785903;79;21444;-74
2021/01/26 07:49:32;;;;;;;16.05;8.20;;;;;;;-0.10;75.13;97353.50;1785917;79;21487;-74
2021/01/26 07:52:01;;;;;;;14.58;8.38;;;;;;;-0.08;75.49;97360.77;1785860;80;21490;-74
2021/01/26 07:54:43;;;;;;;14.78;8.40;;;;;;;-0.03;75.62;97356.36;1785955;79;21443;-73
2021/01/26 07:57:10;;;;;;;21.30;9.55;;;;;;;0.02;75.52;97362.88;1785980;80;21103;-74
2021/01/26 07:59:40;;;;;;;21.33;11.68;;;;;;;0.06;75.62;97356.03;1785863;79;21095;-73
2021/01/26 08:02:21;;;;;;;58.48;18.30;;;;;;;0.15;75.38;97354.66;1785779;80;21134;-74
2021/01/26 08:04:47;;;;;;;19.20;10.18;;;;;;;0.21;75.10;97355.89;1785105;79;21106;-73
2021/01/26 08:07:28;;;;;;;19.15;9.83;;;;;;;0.10;74.60;97358.03;1785831;80;21079;-73
2021/01/26 08:09:54;;;;;;;25.75;11.48;;;;;;;0.09;75.19;97360.92;1785843;79;21027;-74
2021/01/26 08:12:32;;;;;;;22.17;10.38;;;;;;;0.16;75.10;97360.28;1785867;80;21193;-73
2021/01/26 08:15:29;;;;;;;24.75;12.28;;;;;;;0.19;75.04;97369.98;1780907;80;21482;-73
2021/01/26 08:17:56;;;;;;;34.80;16.60;;;;;;;0.23;75.04;97362.32;1785308;79;21562;-74
2021/01/26 08:20:32;;;;;;;31.62;15.30;;;;;;;0.24;74.54;97366.61;1785884;79;21022;-73
2021/01/26 08:23:07;;;;;;;20.23;10.15;;;;;;;0.28;74.49;97369.13;1755785;79;21074;-74
2021/01/26 08:25:39;;;;;;;21.37;10.58;;;;;;;0.49;74.09;97375.73;1785698;79;21187;-74
2021/01/26 08:28:16;;;;;;;21.30;11.12;;;;;;;0.72;73.46;97368.27;1785855;79;21215;-73
2021/01/26 08:30:57;;;;;;;28.20;18.23;;;;;;;0.94;72.43;97363.98;1873999;76;27725;-72
2021/01/26 08:33:29;;;;;;;27.40;21.70;;;;;;;1.12;71.80;97371.84;1870382;75;21506;-74
2021/01/26 08:36:12;;;;;;;39.38;20.52;;;;;;;1.08;72.17;97373.86;1893610;75;21190;-74
2021/01/26 08:38:58;;;;;;;19.50;10.55;;;;;;;1.06;71.81;97370.09;1888929;75;21000;-74
2021/01/26 08:41:40;;;;;;;55.25;29.80;;;;;;;1.02;72.36;97372.93;1893707;75;21487;-74
2021/01/26 08:44:22;;;;;;;25.95;15.20;;;;;;;1.04;72.09;97380.20;1893483;75;21080;-75
2021/01/26 08:46:50;;;;;;;24.05;13.13;;;;;;;1.02;71.57;97371.59;1893709;75;20894;-74
2021/01/26 08:49:27;;;;;;;18.70;11.33;;;;;;;1.03;72.11;97369.77;1862096;75;22170;-74
2021/01/26 08:51:54;;;;;;;16.80;7.37;;;;;;;1.11;71.93;97384.05;1893514;75;21087;-73
2021/01/26 08:54:44;;;;;;;20.10;9.75;;;;;;;1.15;71.24;97390.56;1893559;75;21008;-73
2021/01/26 08:57:30;;;;;;;50.40;27.45;;;;;;;1.21;71.62;97392.83;1857170;75;21051;-74
2021/01/26 09:00:01;;;;;;;47.20;19.37;;;;;;;1.17;70.50;97388.46;1890497;75;21472;-74
2021/01/26 09:02:45;;;;;;;17.65;11.85;;;;;;;1.18;70.63;97402.62;1884905;75;21205;-74
2021/01/26 09:05:11;;;;;;;16.20;9.55;;;;;;;1.20;69.17;97399.19;1892029;75;21056;-74
2021/01/26 09:07:53;;;;;;;14.80;11.03;;;;;;;1.19;69.05;97402.37;1893531;75;21064;-73
2021/01/26 09:10:28;;;;;;;15.03;10.10;;;;;;;1.19;68.89;97406.91;1893459;75;21008;-74
2021/01/26 09:13:26;;;;;;;15.88;7.67;;;;;;;1.21;69.86;97406.98;1893521;75;21095;-74
2021/01/26 09:16:00;;;;;;;13.83;6.62;;;;;;;1.20;69.46;97414.70;1893571;75;21503;-74
2021/01/26 09:18:27;;;;;;;9.68;5.25;;;;;;;1.00;69.73;97412.38;1893453;75;21098;-74
2021/01/26 09:21:00;;;;;;;12.73;6.72;;;;;;;0.90;70.34;97428.16;1893440;75;21500;-75
2021/01/26 09:23:26;;;;;;;9.03;5.37;;;;;;;0.77;70.95;97417.22;1893600;75;21464;-74
2021/01/26 09:25:53;;;;;;;36.95;20.72;;;;;;;0.70;71.42;97427.18;1893464;75;21134;-74
2021/01/26 09:28:24;;;;;;;14.35;8.78;;;;;;;0.72;71.26;97430.95;1893577;75;21118;-74
2021/01/26 09:30:59;;;;;;;20.05;15.28;;;;;;;0.76;71.43;97431.57;1896087;75;21039;-74
2021/01/26 09:33:27;;;;;;;68.00;23.80;;;;;;;0.89;71.47;97431.88;1896621;75;21078;-74
2021/01/26 09:36:10;;;;;;;18.20;7.70;;;;;;;0.98;71.46;97434.48;1821443;78;21483;-74
2021/01/26 09:38:43;;;;;;;14.45;7.10;;;;;;;0.98;71.68;97430.48;1825075;78;21071;-74
2021/01/26 09:41:27;;;;;;;15.13;7.97;;;;;;;0.94;71.68;97432.02;1820951;78;21198;-74
2021/01/26 09:44:09;;;;;;;24.47;10.53;;;;;;;0.98;71.60;97434.48;1823269;78;21086;-73
2021/01/26 09:46:48;;;;;;;14.28;7.78;;;;;;;1.11;71.16;97432.09;1820610;78;21097;-74
2021/01/26 09:49:23;;;;;;;18.75;12.53;;;;;;;1.06;71.02;97442.14;1823043;78;21019;-73
2021/01/26 09:52:07;;;;;;;34.10;20.65;;;;;;;1.17;70.79;97431.16;1820764;78;21452;-74
2021/01/26 09:54:36;;;;;;;17.23;8.80;;;;;;;1.24;70.97;97429.19;1824334;78;22087;-73
2021/01/26 09:57:03;;;;;;;12.95;8.23;;;;;;;1.29;70.55;97434.65;1820674;78;21869;-73
2021/01/26 09:59:31;;;;;;;14.18;8.80;;;;;;;1.49;70.96;97434.78;1824321;78;21080;-73
2021/01/26 10:01:58;;;;;;;14.73;9.63;;;;;;;1.59;70.33;97437.12;1820827;78;21094;-73
2021/01/26 10:04:25;;;;;;;21.37;10.93;;;;;;;1.67;70.15;97436.77;1824310;78;21060;-73
2021/01/26 10:07:04;;;;;;;19.52;12.00;;;;;;;1.74;70.24;97433.95;1820569;78;21191;-73
2021/01/26 10:09:30;;;;;;;19.95;11.50;;;;;;;1.78;69.97;97439.10;1823758;78;21031;-74
2021/01/26 10:12:27;;;;;;;23.83;14.03;;;;;;;1.82;69.63;97439.45;1820743;78;21504;-74
2021/01/26 10:15:30;;;;;;;23.85;14.80;;;;;;;1.90;69.21;97445.23;1824273;78;21158;-74
2021/01/26 10:18:16;;;;;;;19.07;10.72;;;;;;;1.90;68.51;97445.76;1820611;78;21099;-74
2021/01/26 10:20:50;;;;;;;14.18;6.97;;;;;;;1.81;69.00;97440.51;1824358;78;22103;-74
2021/01/26 10:23:36;;;;;;;15.20;9.13;;;;;;;1.68;68.24;97440.23;1820509;78;21098;-74
2021/01/26 10:26:30;;;;;;;21.12;9.35;;;;;;;1.48;68.90;97445.18;1824360;78;21059;-73
2021/01/26 10:29:04;;;;;;;12.20;7.55;;;;;;;1.46;69.17;97441.94;1820531;78;21071;-74
2021/01/26 10:31:45;;;;;;;20.97;10.10;;;;;;;1.41;68.40;97443.97;1824469;78;21083;-74
2021/01/26 10:34:44;;;;;;;18.23;9.23;;;;;;;1.37;69.03;97446.83;1767731;81;22105;-75
2021/01/26 10:37:28;;;;;;;17.30;8.58;;;;;;;1.31;69.23;97441.89;1822588;78;21118;-73
2021/01/26 10:40:19;;;;;;;17.80;8.98;;;;;;;1.34;69.18;97448.61;1767684;81;21090;-74
2021/01/26 10:43:07;;;;;;;19.07;9.93;;;;;;;1.31;68.66;97445.09;1824178;78;21499;-74
2021/01/26 10:45:44;;;;;;;12.65;8.08;;;;;;;1.31;68.37;97438.41;1824462;78;21083;-74
2021/01/26 10:48:35;;;;;;;11.20;7.60;;;;;;;1.38;69.03;97439.11;1767646;81;21208;-74
2021/01/26 10:51:28;;;;;;;10.23;6.30;;;;;;;1.52;68.78;97445.79;1823469;78;20916;-74
2021/01/26 10:53:54;;;;;;;10.58;6.20;;;;;;;1.55;67.54;97444.53;1824340;78;21118;-74
2021/01/26 10:56:21;;;;;;;10.03;5.40;;;;;;;1.46;67.78;97440.60;1824352;78;21052;-73
2021/01/26 10:58:48;;;;;;;8.53;4.08;;;;;;;1.43;68.03;97437.05;1824372;78;21468;-73
2021/01/26 11:01:21;;;;;;;9.78;6.83;;;;;;;1.36;67.11;97429.97;1824246;78;21483;-73
2021/01/26 11:03:49;;;;;;;10.78;6.45;;;;;;;1.33;67.39;97430.45;1824193;78;21043;-74
2021/01/26 11:06:17;;;;;;;13.35;7.08;;;;;;;1.34;67.66;97441.94;1767619;81;21113;-74
2021/01/26 11:08:43;;;;;;;16.77;10.28;;;;;;;1.40;66.07;97440.48;1824251;78;21098;-74
2021/01/26 11:11:20;;;;;;;12.43;6.60;;;;;;;1.50;67.23;97439.07;1824265;78;21016;-74
2021/01/26 11:13:46;;;;;;;10.18;5.42;;;;;;;1.58;66.24;97436.84;1824266;78;21237;-74
2021/01/26 11:16:13;;;;;;;11.50;6.67;;;;;;;1.61;65.96;97443.04;1824172;78;21162;-73
2021/01/26 11:18:39;;;;;;;9.63;5.60;;;;;;;1.62;65.96;97442.02;1739679;81;21070;-73
2021/01/26 11:21:05;;;;;;;9.33;5.78;;;;;;;1.61;65.25;97437.70;1824328;78;21101;-73
2021/01/26 11:23:31;;;;;;;12.00;7.28;;;;;;;1.67;65.91;97436.77;1824306;78;21403;-73
2021/01/26 11:25:59;;;;;;;10.10;5.37;;;;;;;1.74;65.97;97441.97;1767584;81;21276;-73
2021/01/26 11:28:26;;;;;;;4.72;2.60;;;;;;;1.82;64.85;97430.11;1824312;78;20952;-74
2021/01/26 11:30:52;;;;;;;8.90;4.55;;;;;;;2.02;64.89;97432.34;1809733;78;21134;-74
2021/01/26 11:33:19;;;;;;;8.88;3.90;;;;;;;2.11;65.50;97430.91;1791044;79;20994;-74
2021/01/26 11:35:45;;;;;;;5.85;3.90;;;;;;;2.18;64.38;97425.70;1802904;79;21100;-74
2021/01/26 11:38:11;;;;;;;17.20;10.70;;;;;;;2.32;65.14;97424.88;1791005;79;21299;-74
2021/01/26 11:40:37;;;;;;;13.93;10.75;;;;;;;2.43;64.89;97425.34;1802735;79;21032;-74
2021/01/26 11:43:03;;;;;;;26.17;15.38;;;;;;;2.46;64.55;97425.37;1791092;80;21206;-74
2021/01/26 11:45:34;;;;;;;60.80;25.88;;;;;;;2.41;63.20;97423.44;1802877;79;21413;-74
2021/01/26 11:48:01;;;;;;;16.70;8.53;;;;;;;2.36;64.44;97423.34;1791101;80;21090;-74
2021/01/26 11:50:28;;;;;;;9.83;3.83;;;;;;;2.38;64.42;97422.56;1790933;80;21239;-74
2021/01/26 11:52:54;;;;;;;4.47;3.52;;;;;;;2.29;64.06;97417.33;1791021;80;21133;-75
2021/01/26 11:55:27;;;;;;;5.65;4.50;;;;;;;2.34;64.12;97421.97;1790967;80;21047;-74
2021/01/26 11:57:53;;;;;;;8.78;5.22;;;;;;;2.36;64.12;97426.53;1790996;80;21097;-74
2021/01/26 12:00:23;;;;;;;7.95;4.55;;;;;;;2.44;63.95;97428.81;1790991;80;21030;-74
2021/01/26 12:02:49;;;;;;;8.13;4.47;;;;;;;2.50;62.34;97423.32;1790983;80;21199;-74
2021/01/26 12:05:16;;;;;;;8.10;5.00;;;;;;;2.54;63.19;97419.09;1790916;80;21098;-74
2021/01/26 12:07:42;;;;;;;34.53;13.10;;;;;;;2.59;63.19;97432.28;1791058;80;21105;-74